CheckWX is a tool to help pilots better visualize weather data.  It is not intended as a substitute for an official pre-flight weather briefing.

08:02:40 UTC

VRMG TAF
Gan International Airport
Gan, Maldives
TAF VRMG 190500Z 1906/2012 03003KT 9999 FEW018 TEMPO 1906/1912 FEW018CB

Mar-19@
06:00 UTC

Mar-19 @ 06:00 UTC

Mar-20@
12:00 UTC

Mar-20 @ 12:00 UTC

TAF VRMG 190500Z 1906/2012 03003KT 9999 FEW018
Wind
  • 030° at 3 KTS
Cloud Levels
  • Few at 1,800' AGL

Mar-19@
06:00 UTC

Mar-19 @ 06:00 UTC

Mar-19@
12:00 UTC

Mar-19 @ 12:00 UTC

TEMPO 1906/1912 FEW018CB

Temporary

Temporary Changes expected for less than half the time period

Cloud Levels
  • Few at 1,800' AGL